sensor_id;sensor_type;location;lat;lon;timestamp;pressure;altitude;pressure_sealevel;temperature;humidity
60646;BME280;46462;32.608;-117.032;2023-08-12T00:01:07;99312.96;;;27.75;52.75
60646;BME280;46462;32.608;-117.032;2023-08-12T00:03:38;99308.42;;;27.75;52.96
60646;BME280;46462;32.608;-117.032;2023-08-12T00:06:09;99305.90;;;27.76;53.06
60646;BME280;46462;32.608;-117.032;2023-08-12T00:08:39;99305.39;;;27.81;53.14
60646;BME280;46462;32.608;-117.032;2023-08-12T00:11:10;99299.84;;;27.86;53.02
60646;BME280;46462;32.608;-117.032;2023-08-12T00:13:41;99298.27;;;27.90;52.84
60646;BME280;46462;32.608;-117.032;2023-08-12T00:16:11;99293.47;;;27.95;52.78
60646;BME280;46462;32.608;-117.032;2023-08-12T00:18:42;99294.69;;;27.98;52.66
60646;BME280;46462;32.608;-117.032;2023-08-12T00:21:12;99290.72;;;28.02;52.59
60646;BME280;46462;32.608;-117.032;2023-08-12T00:23:43;99292.64;;;28.05;52.50
60646;BME280;46462;32.608;-117.032;2023-08-12T00:26:14;99288.77;;;28.09;52.39
60646;BME280;46462;32.608;-117.032;2023-08-12T00:28:48;99287.59;;;28.13;52.38
60646;BME280;46462;32.608;-117.032;2023-08-12T00:31:15;99284.63;;;28.14;52.31
60646;BME280;46462;32.608;-117.032;2023-08-12T00:33:45;99286.97;;;28.17;52.23
60646;BME280;46462;32.608;-117.032;2023-08-12T00:36:16;99281.94;;;28.20;52.15
60646;BME280;46462;32.608;-117.032;2023-08-12T00:38:46;99280.28;;;28.24;52.05
60646;BME280;46462;32.608;-117.032;2023-08-12T00:41:17;99277.72;;;28.26;52.06
60646;BME280;46462;32.608;-117.032;2023-08-12T00:43:48;99279.13;;;28.27;52.02
60646;BME280;46462;32.608;-117.032;2023-08-12T00:46:18;99273.87;;;28.28;52.05
60646;BME280;46462;32.608;-117.032;2023-08-12T00:48:49;99272.42;;;28.30;52.01
60646;BME280;46462;32.608;-117.032;2023-08-12T00:51:20;99273.62;;;28.42;51.78
60646;BME280;46462;32.608;-117.032;2023-08-12T00:53:51;99266.32;;;28.46;51.64
60646;BME280;46462;32.608;-117.032;2023-08-12T00:56:21;99269.17;;;28.48;51.74
60646;BME280;46462;32.608;-117.032;2023-08-12T00:58:52;99268.86;;;28.48;51.67
60646;BME280;46462;32.608;-117.032;2023-08-12T01:01:22;99269.58;;;28.50;51.68
60646;BME280;46462;32.608;-117.032;2023-08-12T01:03:52;99272.74;;;28.52;51.56
60646;BME280;46462;32.608;-117.032;2023-08-12T01:06:24;99272.18;;;28.54;51.58
60646;BME280;46462;32.608;-117.032;2023-08-12T01:08:54;99270.94;;;28.55;51.58
60646;BME280;46462;32.608;-117.032;2023-08-12T01:11:29;99272.01;;;28.57;51.49
60646;BME280;46462;32.608;-117.032;2023-08-12T01:14:00;99274.63;;;28.58;51.69
60646;BME280;46462;32.608;-117.032;2023-08-12T01:16:28;99276.79;;;28.61;51.54
60646;BME280;46462;32.608;-117.032;2023-08-12T01:18:56;99272.98;;;28.62;51.50
60646;BME280;46462;32.608;-117.032;2023-08-12T01:21:28;99275.43;;;28.63;51.60
60646;BME280;46462;32.608;-117.032;2023-08-12T01:23:58;99276.89;;;28.64;51.52
60646;BME280;46462;32.608;-117.032;2023-08-12T01:26:28;99280.33;;;28.67;51.46
60646;BME280;46462;32.608;-117.032;2023-08-12T01:28:59;99281.02;;;28.64;51.49
60646;BME280;46462;32.608;-117.032;2023-08-12T01:31:34;99281.49;;;28.68;51.34
60646;BME280;46462;32.608;-117.032;2023-08-12T01:34:06;99280.30;;;28.70;51.36
60646;BME280;46462;32.608;-117.032;2023-08-12T01:36:32;99276.93;;;28.72;51.37
60646;BME280;46462;32.608;-117.032;2023-08-12T01:39:01;99277.45;;;28.73;51.18
60646;BME280;46462;32.608;-117.032;2023-08-12T01:41:31;99276.66;;;28.76;51.23
60646;BME280;46462;32.608;-117.032;2023-08-12T01:44:02;99279.53;;;28.76;51.17
60646;BME280;46462;32.608;-117.032;2023-08-12T01:46:32;99281.58;;;28.78;51.16
60646;BME280;46462;32.608;-117.032;2023-08-12T01:49:03;99283.65;;;28.78;51.18
60646;BME280;46462;32.608;-117.032;2023-08-12T01:51:34;99287.04;;;28.80;51.16
60646;BME280;46462;32.608;-117.032;2023-08-12T01:54:05;99287.22;;;28.76;51.21
60646;BME280;46462;32.608;-117.032;2023-08-12T01:56:35;99291.22;;;28.76;51.13
60646;BME280;46462;32.608;-117.032;2023-08-12T01:59:05;99292.75;;;28.76;51.17
60646;BME280;46462;32.608;-117.032;2023-08-12T02:01:36;99295.46;;;28.76;51.15
60646;BME280;46462;32.608;-117.032;2023-08-12T02:04:07;99293.81;;;28.74;51.17
60646;BME280;46462;32.608;-117.032;2023-08-12T02:06:37;99295.84;;;28.73;51.15
60646;BME280;46462;32.608;-117.032;2023-08-12T02:09:08;99298.36;;;28.73;51.13
60646;BME280;46462;32.608;-117.032;2023-08-12T02:11:38;99304.56;;;28.74;51.17
60646;BME280;46462;32.608;-117.032;2023-08-12T02:14:09;99305.37;;;28.73;51.17
60646;BME280;46462;32.608;-117.032;2023-08-12T02:16:40;99307.31;;;28.73;51.12
60646;BME280;46462;32.608;-117.032;2023-08-12T02:19:10;99303.97;;;28.71;51.02
60646;BME280;46462;32.608;-117.032;2023-08-12T02:21:41;99306.15;;;28.73;50.94
60646;BME280;46462;32.608;-117.032;2023-08-12T02:24:11;99307.23;;;28.73;50.89
60646;BME280;46462;32.608;-117.032;2023-08-12T02:26:42;99308.54;;;28.73;50.85
60646;BME280;46462;32.608;-117.032;2023-08-12T02:29:13;99313.47;;;28.72;51.11
60646;BME280;46462;32.608;-117.032;2023-08-12T02:31:43;99315.68;;;28.74;50.88
60646;BME280;46462;32.608;-117.032;2023-08-12T02:34:14;99316.75;;;28.74;50.71
60646;BME280;46462;32.608;-117.032;2023-08-12T02:36:44;99315.57;;;28.75;50.69
60646;BME280;46462;32.608;-117.032;2023-08-12T02:39:15;99321.38;;;28.80;50.62
60646;BME280;46462;32.608;-117.032;2023-08-12T02:41:45;99323.07;;;28.78;50.61
60646;BME280;46462;32.608;-117.032;2023-08-12T02:44:18;99329.49;;;28.77;50.61
60646;BME280;46462;32.608;-117.032;2023-08-12T02:46:47;99329.88;;;28.86;50.45
60646;BME280;46462;32.608;-117.032;2023-08-12T02:49:17;99332.23;;;28.91;50.27
60646;BME280;46462;32.608;-117.032;2023-08-12T02:51:48;99334.79;;;28.86;50.72
60646;BME280;46462;32.608;-117.032;2023-08-12T02:54:18;99336.67;;;28.83;51.02
60646;BME280;46462;32.608;-117.032;2023-08-12T02:56:50;99341.83;;;28.80;51.12
60646;BME280;46462;32.608;-117.032;2023-08-12T02:59:20;99341.18;;;28.78;51.10
60646;BME280;46462;32.608;-117.032;2023-08-12T03:01:50;99345.86;;;28.79;50.74
60646;BME280;46462;32.608;-117.032;2023-08-12T03:04:21;99346.07;;;28.78;51.03
60646;BME280;46462;32.608;-117.032;2023-08-12T03:06:51;99349.43;;;28.77;51.18
60646;BME280;46462;32.608;-117.032;2023-08-12T03:09:22;99354.66;;;28.77;51.16
60646;BME280;46462;32.608;-117.032;2023-08-12T03:11:52;99357.84;;;28.77;50.96
60646;BME280;46462;32.608;-117.032;2023-08-12T03:14:23;99362.00;;;28.76;50.68
60646;BME280;46462;32.608;-117.032;2023-08-12T03:16:54;99364.84;;;28.77;50.82
60646;BME280;46462;32.608;-117.032;2023-08-12T03:19:24;99364.64;;;28.76;51.34
60646;BME280;46462;32.608;-117.032;2023-08-12T03:21:55;99365.77;;;28.76;51.16
60646;BME280;46462;32.608;-117.032;2023-08-12T03:24:25;99369.36;;;28.76;51.06
60646;BME280;46462;32.608;-117.032;2023-08-12T03:26:56;99373.88;;;28.76;51.15
60646;BME280;46462;32.608;-117.032;2023-08-12T03:29:26;99378.12;;;28.73;51.24
60646;BME280;46462;32.608;-117.032;2023-08-12T03:31:57;99381.87;;;28.74;51.17
60646;BME280;46462;32.608;-117.032;2023-08-12T03:34:29;99386.02;;;28.73;51.26
60646;BME280;46462;32.608;-117.032;2023-08-12T03:36:58;99390.10;;;28.72;51.34
60646;BME280;46462;32.608;-117.032;2023-08-12T03:39:29;99389.42;;;28.71;51.27
60646;BME280;46462;32.608;-117.032;2023-08-12T03:41:59;99391.41;;;28.69;51.33
60646;BME280;46462;32.608;-117.032;2023-08-12T03:44:30;99394.03;;;28.68;51.38
60646;BME280;46462;32.608;-117.032;2023-08-12T03:47:00;99395.21;;;28.69;51.34
60646;BME280;46462;32.608;-117.032;2023-08-12T03:49:31;99400.80;;;28.69;51.30
60646;BME280;46462;32.608;-117.032;2023-08-12T03:52:02;99400.70;;;28.66;51.37
60646;BME280;46462;32.608;-117.032;2023-08-12T03:54:32;99405.74;;;28.62;51.45
60646;BME280;46462;32.608;-117.032;2023-08-12T03:57:03;99407.51;;;28.60;51.42
60646;BME280;46462;32.608;-117.032;2023-08-12T03:59:33;99412.97;;;28.58;51.68
60646;BME280;46462;32.608;-117.032;2023-08-12T04:02:04;99416.94;;;28.58;51.46
60646;BME280;46462;32.608;-117.032;2023-08-12T04:04:34;99415.38;;;28.57;51.55
60646;BME280;46462;32.608;-117.032;2023-08-12T04:07:05;99422.19;;;28.57;51.50
60646;BME280;46462;32.608;-117.032;2023-08-12T04:09:36;99423.47;;;28.54;51.49
60646;BME280;46462;32.608;-117.032;2023-08-12T04:12:07;99426.83;;;28.54;51.42
60646;BME280;46462;32.608;-117.032;2023-08-12T04:14:37;99429.01;;;28.53;51.54
60646;BME280;46462;32.608;-117.032;2023-08-12T04:17:07;99429.75;;;28.60;51.41
60646;BME280;46462;32.608;-117.032;2023-08-12T04:19:38;99434.49;;;28.58;51.45
60646;BME280;46462;32.608;-117.032;2023-08-12T04:22:09;99435.75;;;28.56;51.43
60646;BME280;46462;32.608;-117.032;2023-08-12T04:24:39;99434.87;;;28.54;51.35
60646;BME280;46462;32.608;-117.032;2023-08-12T04:27:10;99432.56;;;28.60;51.23
60646;BME280;46462;32.608;-117.032;2023-08-12T04:29:40;99434.75;;;28.58;51.20
60646;BME280;46462;32.608;-117.032;2023-08-12T04:32:11;99438.93;;;28.60;51.04
60646;BME280;46462;32.608;-117.032;2023-08-12T04:34:41;99442.35;;;28.60;51.25
60646;BME280;46462;32.608;-117.032;2023-08-12T04:37:12;99447.83;;;28.62;51.11
60646;BME280;46462;32.608;-117.032;2023-08-12T04:39:43;99446.74;;;28.60;51.20
60646;BME280;46462;32.608;-117.032;2023-08-12T04:42:13;99449.53;;;28.61;51.14
60646;BME280;46462;32.608;-117.032;2023-08-12T04:44:44;99449.90;;;28.59;51.14
60646;BME280;46462;32.608;-117.032;2023-08-12T04:47:15;99450.24;;;28.59;51.09
60646;BME280;46462;32.608;-117.032;2023-08-12T04:49:45;99452.01;;;28.57;51.10
60646;BME280;46462;32.608;-117.032;2023-08-12T04:52:16;99454.02;;;28.58;51.10
60646;BME280;46462;32.608;-117.032;2023-08-12T04:54:46;99455.30;;;28.56;51.07
60646;BME280;46462;32.608;-117.032;2023-08-12T04:57:17;99457.57;;;28.58;50.99
60646;BME280;46462;32.608;-117.032;2023-08-12T04:59:47;99458.77;;;28.56;50.99
60646;BME280;46462;32.608;-117.032;2023-08-12T05:02:18;99461.12;;;28.56;50.96
60646;BME280;46462;32.608;-117.032;2023-08-12T05:04:49;99463.10;;;28.54;51.01
60646;BME280;46462;32.608;-117.032;2023-08-12T05:07:19;99464.11;;;28.55;50.98
60646;BME280;46462;32.608;-117.032;2023-08-12T05:09:50;99466.51;;;28.53;51.03
60646;BME280;46462;32.608;-117.032;2023-08-12T05:12:20;99467.37;;;28.53;50.98
60646;BME280;46462;32.608;-117.032;2023-08-12T05:14:51;99466.34;;;28.52;51.02
60646;BME280;46462;32.608;-117.032;2023-08-12T05:17:21;99467.67;;;28.52;51.01
60646;BME280;46462;32.608;-117.032;2023-08-12T05:19:52;99469.37;;;28.49;51.08
60646;BME280;46462;32.608;-117.032;2023-08-12T05:22:22;99470.58;;;28.50;50.99
60646;BME280;46462;32.608;-117.032;2023-08-12T05:24:53;99471.27;;;28.48;50.96
60646;BME280;46462;32.608;-117.032;2023-08-12T05:27:23;99470.08;;;28.50;50.85
60646;BME280;46462;32.608;-117.032;2023-08-12T05:29:54;99473.04;;;28.49;50.88
60646;BME280;46462;32.608;-117.032;2023-08-12T05:32:24;99477.43;;;28.49;50.84
60646;BME280;46462;32.608;-117.032;2023-08-12T05:34:55;99476.49;;;28.48;50.92
60646;BME280;46462;32.608;-117.032;2023-08-12T05:37:26;99473.91;;;28.48;50.82
60646;BME280;46462;32.608;-117.032;2023-08-12T05:39:57;99473.72;;;28.46;50.92
60646;BME280;46462;32.608;-117.032;2023-08-12T05:42:27;99476.73;;;28.49;50.76
60646;BME280;46462;32.608;-117.032;2023-08-12T05:44:57;99471.97;;;28.47;50.82
60646;BME280;46462;32.608;-117.032;2023-08-12T05:47:28;99470.50;;;28.47;50.74
60646;BME280;46462;32.608;-117.032;2023-08-12T05:49:58;99467.12;;;28.45;50.81
60646;BME280;46462;32.608;-117.032;2023-08-12T05:52:29;99465.76;;;28.46;50.80
60646;BME280;46462;32.608;-117.032;2023-08-12T05:55:00;99468.74;;;28.40;50.91
60646;BME280;46462;32.608;-117.032;2023-08-12T05:57:31;99468.35;;;28.39;50.91
60646;BME280;46462;32.608;-117.032;2023-08-12T06:00:01;99467.84;;;28.37;50.96
60646;BME280;46462;32.608;-117.032;2023-08-12T06:02:31;99468.68;;;28.37;50.98
60646;BME280;46462;32.608;-117.032;2023-08-12T06:05:02;99469.26;;;28.34;51.01
60646;BME280;46462;32.608;-117.032;2023-08-12T06:07:33;99470.10;;;28.35;50.98
60646;BME280;46462;32.608;-117.032;2023-08-12T06:10:08;99470.54;;;28.31;51.09
60646;BME280;46462;32.608;-117.032;2023-08-12T06:12:37;99470.92;;;28.32;51.08
60646;BME280;46462;32.608;-117.032;2023-08-12T06:15:08;99472.39;;;28.30;51.08
60646;BME280;46462;32.608;-117.032;2023-08-12T06:17:38;99473.64;;;28.31;50.99
60646;BME280;46462;32.608;-117.032;2023-08-12T06:20:10;99473.05;;;28.30;51.01
60646;BME280;46462;32.608;-117.032;2023-08-12T06:22:40;99467.67;;;28.30;50.90
60646;BME280;46462;32.608;-117.032;2023-08-12T06:25:10;99465.33;;;28.34;50.79
60646;BME280;46462;32.608;-117.032;2023-08-12T06:27:41;99463.74;;;28.34;50.68
60646;BME280;46462;32.608;-117.032;2023-08-12T06:30:12;99460.33;;;28.31;50.78
60646;BME280;46462;32.608;-117.032;2023-08-12T06:32:42;99463.07;;;28.30;50.77
60646;BME280;46462;32.608;-117.032;2023-08-12T06:35:12;99462.13;;;28.29;50.74
60646;BME280;46462;32.608;-117.032;2023-08-12T06:37:43;99458.23;;;28.31;50.62
60646;BME280;46462;32.608;-117.032;2023-08-12T06:40:14;99462.25;;;28.30;50.65
60646;BME280;46462;32.608;-117.032;2023-08-12T06:42:44;99463.11;;;28.30;50.61
60646;BME280;46462;32.608;-117.032;2023-08-12T06:45:15;99457.45;;;28.30;50.62
60646;BME280;46462;32.608;-117.032;2023-08-12T06:47:45;99457.42;;;28.29;50.60
60646;BME280;46462;32.608;-117.032;2023-08-12T06:50:16;99461.02;;;28.28;50.62
60646;BME280;46462;32.608;-117.032;2023-08-12T06:52:47;99464.76;;;28.29;50.52
60646;BME280;46462;32.608;-117.032;2023-08-12T06:55:17;99471.10;;;28.29;50.55
60646;BME280;46462;32.608;-117.032;2023-08-12T06:57:48;99470.62;;;28.29;50.56
60646;BME280;46462;32.608;-117.032;2023-08-12T07:00:18;99470.42;;;28.27;50.57
60646;BME280;46462;32.608;-117.032;2023-08-12T07:02:49;99467.46;;;28.28;50.49
60646;BME280;46462;32.608;-117.032;2023-08-12T07:05:19;99469.88;;;28.27;50.48
60646;BME280;46462;32.608;-117.032;2023-08-12T07:07:50;99469.77;;;28.26;50.52
60646;BME280;46462;32.608;-117.032;2023-08-12T07:10:21;99469.44;;;28.26;50.46
60646;BME280;46462;32.608;-117.032;2023-08-12T07:12:51;99466.76;;;28.25;50.45
60646;BME280;46462;32.608;-117.032;2023-08-12T07:15:22;99464.96;;;28.24;50.43
60646;BME280;46462;32.608;-117.032;2023-08-12T07:17:52;99462.80;;;28.29;50.36
60646;BME280;46462;32.608;-117.032;2023-08-12T07:20:23;99464.27;;;28.27;50.31
60646;BME280;46462;32.608;-117.032;2023-08-12T07:22:54;99462.32;;;28.26;50.30
60646;BME280;46462;32.608;-117.032;2023-08-12T07:25:24;99463.54;;;28.22;50.40
60646;BME280;46462;32.608;-117.032;2023-08-12T07:27:55;99462.88;;;28.23;50.34
60646;BME280;46462;32.608;-117.032;2023-08-12T07:30:25;99464.98;;;28.19;50.36
60646;BME280;46462;32.608;-117.032;2023-08-12T07:32:56;99465.10;;;28.20;50.37
60646;BME280;46462;32.608;-117.032;2023-08-12T07:35:26;99464.27;;;28.18;50.30
60646;BME280;46462;32.608;-117.032;2023-08-12T07:37:57;99460.91;;;28.17;50.37
60646;BME280;46462;32.608;-117.032;2023-08-12T07:40:28;99459.73;;;28.16;50.38
60646;BME280;46462;32.608;-117.032;2023-08-12T07:42:58;99456.28;;;28.16;50.39
60646;BME280;46462;32.608;-117.032;2023-08-12T07:45:29;99453.07;;;28.14;50.37
60646;BME280;46462;32.608;-117.032;2023-08-12T07:47:59;99453.15;;;28.14;50.35
60646;BME280;46462;32.608;-117.032;2023-08-12T07:50:30;99452.74;;;28.14;50.31
60646;BME280;46462;32.608;-117.032;2023-08-12T07:53:00;99454.33;;;28.15;50.31
60646;BME280;46462;32.608;-117.032;2023-08-12T07:55:31;99456.50;;;28.12;50.25
60646;BME280;46462;32.608;-117.032;2023-08-12T07:58:02;99455.72;;;28.10;50.27
60646;BME280;46462;32.608;-117.032;2023-08-12T08:00:33;99456.20;;;28.06;50.42
60646;BME280;46462;32.608;-117.032;2023-08-12T08:03:03;99455.34;;;28.08;50.31
60646;BME280;46462;32.608;-117.032;2023-08-12T08:05:33;99452.21;;;28.05;50.39
60646;BME280;46462;32.608;-117.032;2023-08-12T08:08:04;99450.47;;;28.04;50.36
60646;BME280;46462;32.608;-117.032;2023-08-12T08:10:34;99447.41;;;28.01;50.42
60646;BME280;46462;32.608;-117.032;2023-08-12T08:13:05;99441.07;;;28.02;50.41
60646;BME280;46462;32.608;-117.032;2023-08-12T08:15:36;99437.24;;;28.01;50.40
60646;BME280;46462;32.608;-117.032;2023-08-12T08:18:06;99435.39;;;28.02;50.37
60646;BME280;46462;32.608;-117.032;2023-08-12T08:20:37;99439.74;;;28.03;50.29
60646;BME280;46462;32.608;-117.032;2023-08-12T08:23:08;99440.73;;;28.00;50.31
60646;BME280;46462;32.608;-117.032;2023-08-12T08:25:38;99439.66;;;28.02;50.22
60646;BME280;46462;32.608;-117.032;2023-08-12T08:28:08;99436.78;;;28.03;50.13
60646;BME280;46462;32.608;-117.032;2023-08-12T08:30:39;99434.01;;;28.01;50.18
60646;BME280;46462;32.608;-117.032;2023-08-12T08:33:10;99434.80;;;28.03;50.13
60646;BME280;46462;32.608;-117.032;2023-08-12T08:35:40;99434.96;;;27.99;50.13
60646;BME280;46462;32.608;-117.032;2023-08-12T08:38:11;99428.82;;;28.06;49.92
60646;BME280;46462;32.608;-117.032;2023-08-12T08:40:42;99431.36;;;28.04;49.94
60646;BME280;46462;32.608;-117.032;2023-08-12T08:43:16;99439.24;;;28.01;49.99
60646;BME280;46462;32.608;-117.032;2023-08-12T08:45:44;99444.32;;;28.04;49.88
60646;BME280;46462;32.608;-117.032;2023-08-12T08:48:13;99446.26;;;28.03;49.81
60646;BME280;46462;32.608;-117.032;2023-08-12T08:50:44;99445.92;;;28.02;49.88
60646;BME280;46462;32.608;-117.032;2023-08-12T08:53:15;99449.69;;;27.98;49.98
60646;BME280;46462;32.608;-117.032;2023-08-12T08:55:46;99450.60;;;28.01;49.90
60646;BME280;46462;32.608;-117.032;2023-08-12T08:58:16;99447.79;;;28.01;49.88
60646;BME280;46462;32.608;-117.032;2023-08-12T09:00:47;99449.29;;;27.99;49.84
60646;BME280;46462;32.608;-117.032;2023-08-12T09:03:17;99448.78;;;28.01;49.85
60646;BME280;46462;32.608;-117.032;2023-08-12T09:05:48;99444.99;;;28.02;49.80
60646;BME280;46462;32.608;-117.032;2023-08-12T09:08:18;99447.14;;;28.03;49.79
60646;BME280;46462;32.608;-117.032;2023-08-12T09:10:49;99446.94;;;28.01;49.74
60646;BME280;46462;32.608;-117.032;2023-08-12T09:13:19;99448.79;;;27.97;49.85
60646;BME280;46462;32.608;-117.032;2023-08-12T09:15:50;99448.72;;;27.99;49.86
60646;BME280;46462;32.608;-117.032;2023-08-12T09:18:21;99445.38;;;28.00;49.78
60646;BME280;46462;32.608;-117.032;2023-08-12T09:20:51;99441.84;;;27.95;49.89
60646;BME280;46462;32.608;-117.032;2023-08-12T09:23:21;99439.90;;;27.95;49.92
60646;BME280;46462;32.608;-117.032;2023-08-12T09:25:52;99440.84;;;27.99;49.72
60646;BME280;46462;32.608;-117.032;2023-08-12T09:28:25;99440.39;;;27.96;49.81
60646;BME280;46462;32.608;-117.032;2023-08-12T09:30:53;99440.15;;;27.97;49.78
60646;BME280;46462;32.608;-117.032;2023-08-12T09:33:26;99437.52;;;27.99;49.71
60646;BME280;46462;32.608;-117.032;2023-08-12T09:35:55;99436.85;;;27.96;49.75
60646;BME280;46462;32.608;-117.032;2023-08-12T09:38:26;99437.50;;;27.93;49.75
60646;BME280;46462;32.608;-117.032;2023-08-12T09:40:56;99436.92;;;27.91;49.75
60646;BME280;46462;32.608;-117.032;2023-08-12T09:43:28;99433.51;;;27.92;49.75
60646;BME280;46462;32.608;-117.032;2023-08-12T09:45:57;99436.24;;;27.91;49.80
60646;BME280;46462;32.608;-117.032;2023-08-12T09:48:27;99435.58;;;27.93;49.68
60646;BME280;46462;32.608;-117.032;2023-08-12T09:50:58;99434.85;;;27.94;49.67
60646;BME280;46462;32.608;-117.032;2023-08-12T09:53:29;99436.31;;;27.90;49.59
60646;BME280;46462;32.608;-117.032;2023-08-12T09:56:03;99437.44;;;27.87;49.74
60646;BME280;46462;32.608;-117.032;2023-08-12T09:58:30;99437.56;;;27.85;49.78
60646;BME280;46462;32.608;-117.032;2023-08-12T10:01:01;99435.72;;;27.83;49.85
60646;BME280;46462;32.608;-117.032;2023-08-12T10:03:33;99438.64;;;27.80;49.90
60646;BME280;46462;32.608;-117.032;2023-08-12T10:06:02;99442.05;;;27.79;50.00
60646;BME280;46462;32.608;-117.032;2023-08-12T10:08:33;99447.99;;;27.80;49.84
60646;BME280;46462;32.608;-117.032;2023-08-12T10:11:03;99448.16;;;27.77;49.92
60646;BME280;46462;32.608;-117.032;2023-08-12T10:13:33;99447.46;;;27.78;49.96
60646;BME280;46462;32.608;-117.032;2023-08-12T10:16:04;99451.11;;;27.78;49.86
60646;BME280;46462;32.608;-117.032;2023-08-12T10:18:36;99448.49;;;27.75;49.84
60646;BME280;46462;32.608;-117.032;2023-08-12T10:21:07;99442.74;;;27.73;49.89
60646;BME280;46462;32.608;-117.032;2023-08-12T10:23:36;99438.85;;;27.75;49.82
60646;BME280;46462;32.608;-117.032;2023-08-12T10:26:06;99438.93;;;27.79;49.75
60646;BME280;46462;32.608;-117.032;2023-08-12T10:28:37;99438.91;;;27.79;49.72
60646;BME280;46462;32.608;-117.032;2023-08-12T10:31:07;99443.69;;;27.73;49.79
60646;BME280;46462;32.608;-117.032;2023-08-12T10:33:38;99440.61;;;27.74;49.52
60646;BME280;46462;32.608;-117.032;2023-08-12T10:36:09;99439.48;;;27.68;49.90
60646;BME280;46462;32.608;-117.032;2023-08-12T10:38:39;99438.47;;;27.63;50.02
60646;BME280;46462;32.608;-117.032;2023-08-12T10:41:17;99441.73;;;27.65;49.81
60646;BME280;46462;32.608;-117.032;2023-08-12T10:46:21;99445.30;;;27.70;49.74
60646;BME280;46462;32.608;-117.032;2023-08-12T10:51:12;99442.56;;;27.74;49.72
60646;BME280;46462;32.608;-117.032;2023-08-12T10:53:42;99443.68;;;27.73;49.65
60646;BME280;46462;32.608;-117.032;2023-08-12T10:56:13;99439.32;;;27.74;49.45
60646;BME280;46462;32.608;-117.032;2023-08-12T10:58:46;99436.80;;;27.68;49.58
60646;BME280;46462;32.608;-117.032;2023-08-12T11:01:17;99436.03;;;27.70;49.57
60646;BME280;46462;32.608;-117.032;2023-08-12T11:03:45;99437.10;;;27.73;49.48
60646;BME280;46462;32.608;-117.032;2023-08-12T11:06:15;99437.35;;;27.72;49.50
60646;BME280;46462;32.608;-117.032;2023-08-12T11:08:47;99438.22;;;27.66;49.62
60646;BME280;46462;32.608;-117.032;2023-08-12T11:11:21;99441.40;;;27.61;49.71
60646;BME280;46462;32.608;-117.032;2023-08-12T11:13:52;99438.83;;;27.64;49.68
60646;BME280;46462;32.608;-117.032;2023-08-12T11:16:18;99438.29;;;27.69;49.48
60646;BME280;46462;32.608;-117.032;2023-08-12T11:18:48;99435.35;;;27.72;49.41
60646;BME280;46462;32.608;-117.032;2023-08-12T11:21:20;99433.17;;;27.69;49.45
60646;BME280;46462;32.608;-117.032;2023-08-12T11:23:51;99431.95;;;27.67;49.44
60646;BME280;46462;32.608;-117.032;2023-08-12T11:26:20;99434.69;;;27.70;49.46
60646;BME280;46462;32.608;-117.032;2023-08-12T11:28:51;99436.39;;;27.67;49.49
60646;BME280;46462;32.608;-117.032;2023-08-12T11:31:22;99440.57;;;27.66;49.40
60646;BME280;46462;32.608;-117.032;2023-08-12T11:33:53;99436.55;;;27.55;49.49
60646;BME280;46462;32.608;-117.032;2023-08-12T11:36:23;99440.44;;;27.53;49.42
60646;BME280;46462;32.608;-117.032;2023-08-12T11:38:53;99439.15;;;27.51;49.74
60646;BME280;46462;32.608;-117.032;2023-08-12T11:41:24;99437.41;;;27.38;49.84
60646;BME280;46462;32.608;-117.032;2023-08-12T11:43:54;99431.54;;;27.47;49.78
60646;BME280;46462;32.608;-117.032;2023-08-12T11:46:26;99433.90;;;27.54;49.70
60646;BME280;46462;32.608;-117.032;2023-08-12T11:48:55;99431.69;;;27.49;49.73
60646;BME280;46462;32.608;-117.032;2023-08-12T11:51:26;99428.80;;;27.51;49.55
60646;BME280;46462;32.608;-117.032;2023-08-12T11:53:57;99425.77;;;27.52;49.67
60646;BME280;46462;32.608;-117.032;2023-08-12T11:56:27;99426.70;;;27.50;49.78
60646;BME280;46462;32.608;-117.032;2023-08-12T11:58:58;99426.68;;;27.51;49.66
60646;BME280;46462;32.608;-117.032;2023-08-12T12:01:28;99427.65;;;27.52;49.65
60646;BME280;46462;32.608;-117.032;2023-08-12T12:04:01;99431.61;;;27.34;49.71
60646;BME280;46462;32.608;-117.032;2023-08-12T12:06:32;99430.27;;;27.27;50.08
60646;BME280;46462;32.608;-117.032;2023-08-12T12:09:03;99430.09;;;27.34;49.82
60646;BME280;46462;32.608;-117.032;2023-08-12T12:11:31;99434.14;;;27.35;49.64
60646;BME280;46462;32.608;-117.032;2023-08-12T12:14:03;99437.61;;;27.21;49.90
60646;BME280;46462;32.608;-117.032;2023-08-12T12:16:37;99442.46;;;27.19;50.12
60646;BME280;46462;32.608;-117.032;2023-08-12T12:19:03;99447.90;;;27.19;50.22
60646;BME280;46462;32.608;-117.032;2023-08-12T12:21:39;99452.48;;;27.17;50.32
60646;BME280;46462;32.608;-117.032;2023-08-12T12:24:04;99453.87;;;27.20;50.14
60646;BME280;46462;32.608;-117.032;2023-08-12T12:26:35;99456.21;;;27.19;50.16
60646;BME280;46462;32.608;-117.032;2023-08-12T12:29:05;99458.31;;;27.14;50.26
60646;BME280;46462;32.608;-117.032;2023-08-12T12:31:36;99457.73;;;27.12;50.25
60646;BME280;46462;32.608;-117.032;2023-08-12T12:34:07;99455.36;;;27.22;50.18
60646;BME280;46462;32.608;-117.032;2023-08-12T12:36:37;99454.46;;;27.22;50.02
60646;BME280;46462;32.608;-117.032;2023-08-12T12:39:08;99454.82;;;27.10;50.41
60646;BME280;46462;32.608;-117.032;2023-08-12T12:41:38;99457.76;;;27.18;50.11
60646;BME280;46462;32.608;-117.032;2023-08-12T12:44:08;99452.56;;;27.14;50.21
60646;BME280;46462;32.608;-117.032;2023-08-12T12:46:39;99450.82;;;27.26;50.13
60646;BME280;46462;32.608;-117.032;2023-08-12T12:49:10;99450.31;;;27.22;50.03
60646;BME280;46462;32.608;-117.032;2023-08-12T12:51:40;99452.90;;;27.33;49.78